Hesperia, CA (92340)

8:23 AM PST on December 03, 2016 (GMT -0800)
Hesperia Chestnut | | Change Station

Elev 3212 ft 34.43 °N, 117.31 °W | Updated 48 seconds ago

Clear
Clear
41.5 °F
Feels Like 42 °F
N
2.0
Wind Variable Wind from NNE
Gusts 4.0 mph

Today
High -- | Low -- °F
--% Chance of Precip.
Yesterday
High -- | Low -- °F
Precip. -- in
Pressure 30.32 in
Visibility 10.0 miles
Clouds Clear
Windchill 42 °F
Dew Point 8 °F
Humidity 25%
Rainfall 0.00 in
Snow Depth Not available.
6:39 AM 4:38 PM
Waxing Crescent, 15% visible
METAR KGXA 031455Z AUTO 15002KT 10SM CLR 04/M17 A3020 RMK AO2 SLP267 WND DATA ESTMD T00361171 50000 TSNO $
Pressure 30.32 in
Visibility 10.0 miles
Clouds Clear
Windchill 42 °F
Dew Point 8 °F
Humidity 25%
Rainfall 0.00 in
Snow Depth Not available.
6:39 AM 4:38 PM
Waxing Crescent, 15% visible
METAR KGXA 031455Z AUTO 15002KT 10SM CLR 04/M17 A3020 RMK AO2 SLP267 WND DATA ESTMD T00361171 50000 TSNO $

10-Day Weather Forecast

Almanac

Astronomy

Dec. 03, 2016 Rise Set
Actual Time
Civil Twilight
Nautical Twilight
Astronomical Twilight
Moon
Length of Visible Light
Length of Day
Tomorrow will be .
, % of the Moon is Illuminated

Today's Extremes

State Highs State Lows

Community

WunderPhotos

Upload Photos

1,955,439 photos uploaded!

WunderBlog® & News

Nearby

Air Quality

  Air Quality AQ Index Pollutant
Not available.

Snow Depth

Station Depth Elevation

Earthquake Activity

City Distance Mag. Time & Date
Minimum magnitude displayed is 2.5.

Coastal Water Temperatures

Place Temperature

Stations

Nearby Weather Stations

Station Location Temp. Windchill Dew Point Humidity Wind Precip. Elev Updated Type
                   

Watches & Warnings

There are currently no watches in effect.